sensor_id;sensor_type;location;lat;lon;timestamp;P1;durP1;ratioP1;P2;durP2;ratioP2
31442;SDS011;18065;55.876;9.830;2023-11-22T00:00:06;5.15;;;2.97;;
31442;SDS011;18065;55.876;9.830;2023-11-22T00:02:36;4.97;;;2.80;;
31442;SDS011;18065;55.876;9.830;2023-11-22T00:05:05;4.15;;;2.90;;
31442;SDS011;18065;55.876;9.830;2023-11-22T00:07:36;4.35;;;2.40;;
31442;SDS011;18065;55.876;9.830;2023-11-22T00:10:05;6.43;;;3.00;;
31442;SDS011;18065;55.876;9.830;2023-11-22T00:12:37;4.32;;;2.72;;
31442;SDS011;18065;55.876;9.830;2023-11-22T00:15:07;6.07;;;3.00;;
31442;SDS011;18065;55.876;9.830;2023-11-22T00:17:37;3.97;;;2.83;;
31442;SDS011;18065;55.876;9.830;2023-11-22T00:20:06;4.63;;;2.88;;
31442;SDS011;18065;55.876;9.830;2023-11-22T00:22:36;3.67;;;3.00;;
31442;SDS011;18065;55.876;9.830;2023-11-22T00:25:06;4.72;;;2.80;;
31442;SDS011;18065;55.876;9.830;2023-11-22T00:27:37;4.05;;;2.65;;
31442;SDS011;18065;55.876;9.830;2023-11-22T00:30:07;3.95;;;2.70;;
31442;SDS011;18065;55.876;9.830;2023-11-22T00:32:37;4.18;;;2.83;;
31442;SDS011;18065;55.876;9.830;2023-11-22T00:35:06;8.65;;;2.70;;
31442;SDS011;18065;55.876;9.830;2023-11-22T00:37:35;3.30;;;2.30;;
31442;SDS011;18065;55.876;9.830;2023-11-22T00:40:05;3.40;;;2.60;;
31442;SDS011;18065;55.876;9.830;2023-11-22T00:42:38;3.47;;;2.75;;
31442;SDS011;18065;55.876;9.830;2023-11-22T00:45:09;5.70;;;3.23;;
31442;SDS011;18065;55.876;9.830;2023-11-22T00:47:38;3.60;;;2.90;;
31442;SDS011;18065;55.876;9.830;2023-11-22T00:50:09;4.15;;;3.13;;
31442;SDS011;18065;55.876;9.830;2023-11-22T00:52:38;6.13;;;2.95;;
31442;SDS011;18065;55.876;9.830;2023-11-22T00:55:10;3.88;;;2.50;;
31442;SDS011;18065;55.876;9.830;2023-11-22T00:57:41;5.68;;;2.80;;
31442;SDS011;18065;55.876;9.830;2023-11-22T01:00:10;5.45;;;2.85;;
31442;SDS011;18065;55.876;9.830;2023-11-22T01:02:40;3.92;;;2.60;;
31442;SDS011;18065;55.876;9.830;2023-11-22T01:05:09;5.55;;;3.00;;
31442;SDS011;18065;55.876;9.830;2023-11-22T01:07:39;4.10;;;2.95;;
31442;SDS011;18065;55.876;9.830;2023-11-22T01:10:08;3.33;;;2.45;;
31442;SDS011;18065;55.876;9.830;2023-11-22T01:12:40;4.50;;;2.50;;
31442;SDS011;18065;55.876;9.830;2023-11-22T01:15:09;4.47;;;2.90;;
31442;SDS011;18065;55.876;9.830;2023-11-22T01:17:39;4.20;;;2.47;;
31442;SDS011;18065;55.876;9.830;2023-11-22T01:20:08;3.15;;;2.38;;
31442;SDS011;18065;55.876;9.830;2023-11-22T01:22:39;4.78;;;3.15;;
31442;SDS011;18065;55.876;9.830;2023-11-22T01:25:07;4.60;;;2.75;;
31442;SDS011;18065;55.876;9.830;2023-11-22T01:27:36;5.57;;;2.78;;
31442;SDS011;18065;55.876;9.830;2023-11-22T01:30:08;4.85;;;3.20;;
31442;SDS011;18065;55.876;9.830;2023-11-22T01:32:37;3.35;;;2.55;;
31442;SDS011;18065;55.876;9.830;2023-11-22T01:35:06;3.58;;;2.88;;
31442;SDS011;18065;55.876;9.830;2023-11-22T01:37:35;4.15;;;2.72;;
31442;SDS011;18065;55.876;9.830;2023-11-22T01:40:05;3.45;;;2.80;;
31442;SDS011;18065;55.876;9.830;2023-11-22T01:42:35;5.28;;;2.85;;
31442;SDS011;18065;55.876;9.830;2023-11-22T01:45:08;3.25;;;2.50;;
31442;SDS011;18065;55.876;9.830;2023-11-22T01:47:38;4.78;;;2.97;;
31442;SDS011;18065;55.876;9.830;2023-11-22T01:50:08;4.28;;;2.90;;
31442;SDS011;18065;55.876;9.830;2023-11-22T01:52:39;4.03;;;2.30;;
31442;SDS011;18065;55.876;9.830;2023-11-22T01:55:08;3.78;;;2.78;;
31442;SDS011;18065;55.876;9.830;2023-11-22T01:57:37;4.30;;;2.72;;
31442;SDS011;18065;55.876;9.830;2023-11-22T02:00:09;4.03;;;2.95;;
31442;SDS011;18065;55.876;9.830;2023-11-22T02:02:40;3.10;;;2.40;;
31442;SDS011;18065;55.876;9.830;2023-11-22T02:05:09;3.42;;;2.70;;
31442;SDS011;18065;55.876;9.830;2023-11-22T02:07:38;4.93;;;3.10;;
31442;SDS011;18065;55.876;9.830;2023-11-22T02:10:07;3.65;;;2.60;;
31442;SDS011;18065;55.876;9.830;2023-11-22T02:12:36;5.50;;;3.20;;
31442;SDS011;18065;55.876;9.830;2023-11-22T02:15:05;3.55;;;2.70;;
31442;SDS011;18065;55.876;9.830;2023-11-22T02:17:37;2.85;;;2.55;;
31442;SDS011;18065;55.876;9.830;2023-11-22T02:20:07;4.13;;;2.95;;
31442;SDS011;18065;55.876;9.830;2023-11-22T02:22:42;4.70;;;3.00;;
31442;SDS011;18065;55.876;9.830;2023-11-22T02:25:14;5.88;;;3.13;;
31442;SDS011;18065;55.876;9.830;2023-11-22T02:27:43;5.25;;;3.00;;
31442;SDS011;18065;55.876;9.830;2023-11-22T02:30:12;3.95;;;2.70;;
31442;SDS011;18065;55.876;9.830;2023-11-22T02:32:41;3.33;;;2.70;;
31442;SDS011;18065;55.876;9.830;2023-11-22T02:35:10;5.43;;;3.00;;
31442;SDS011;18065;55.876;9.830;2023-11-22T02:37:41;3.75;;;2.80;;
31442;SDS011;18065;55.876;9.830;2023-11-22T02:40:16;3.65;;;2.70;;
31442;SDS011;18065;55.876;9.830;2023-11-22T02:42:46;2.65;;;2.42;;
31442;SDS011;18065;55.876;9.830;2023-11-22T02:45:15;3.60;;;2.53;;
31442;SDS011;18065;55.876;9.830;2023-11-22T02:47:44;3.55;;;2.60;;
31442;SDS011;18065;55.876;9.830;2023-11-22T02:50:14;3.42;;;2.67;;
31442;SDS011;18065;55.876;9.830;2023-11-22T02:52:44;4.32;;;2.80;;
31442;SDS011;18065;55.876;9.830;2023-11-22T02:55:15;3.60;;;2.55;;
31442;SDS011;18065;55.876;9.830;2023-11-22T02:57:44;3.80;;;2.78;;
31442;SDS011;18065;55.876;9.830;2023-11-22T03:00:14;3.10;;;2.53;;
31442;SDS011;18065;55.876;9.830;2023-11-22T03:02:44;4.00;;;2.70;;
31442;SDS011;18065;55.876;9.830;2023-11-22T03:05:19;3.58;;;2.45;;
31442;SDS011;18065;55.876;9.830;2023-11-22T03:07:49;4.18;;;2.80;;
31442;SDS011;18065;55.876;9.830;2023-11-22T03:10:20;3.60;;;2.72;;
31442;SDS011;18065;55.876;9.830;2023-11-22T03:12:49;3.58;;;2.85;;
31442;SDS011;18065;55.876;9.830;2023-11-22T03:15:19;4.88;;;2.60;;
31442;SDS011;18065;55.876;9.830;2023-11-22T03:17:48;3.80;;;2.95;;
31442;SDS011;18065;55.876;9.830;2023-11-22T03:20:16;3.83;;;2.50;;
31442;SDS011;18065;55.876;9.830;2023-11-22T03:22:46;3.47;;;2.67;;
31442;SDS011;18065;55.876;9.830;2023-11-22T03:25:15;4.03;;;2.67;;
31442;SDS011;18065;55.876;9.830;2023-11-22T03:27:47;2.75;;;2.30;;
31442;SDS011;18065;55.876;9.830;2023-11-22T03:30:17;4.05;;;2.42;;
31442;SDS011;18065;55.876;9.830;2023-11-22T03:32:45;3.80;;;2.78;;
31442;SDS011;18065;55.876;9.830;2023-11-22T03:35:15;4.03;;;2.60;;
31442;SDS011;18065;55.876;9.830;2023-11-22T03:37:44;2.75;;;2.13;;
31442;SDS011;18065;55.876;9.830;2023-11-22T03:40:12;3.30;;;2.42;;
31442;SDS011;18065;55.876;9.830;2023-11-22T03:42:41;3.03;;;2.60;;
31442;SDS011;18065;55.876;9.830;2023-11-22T03:45:13;2.40;;;2.20;;
31442;SDS011;18065;55.876;9.830;2023-11-22T03:47:42;3.28;;;2.60;;
31442;SDS011;18065;55.876;9.830;2023-11-22T03:50:11;2.63;;;2.40;;
31442;SDS011;18065;55.876;9.830;2023-11-22T03:52:40;4.63;;;2.80;;
31442;SDS011;18065;55.876;9.830;2023-11-22T03:55:08;3.50;;;2.53;;
31442;SDS011;18065;55.876;9.830;2023-11-22T03:57:37;3.65;;;2.80;;
31442;SDS011;18065;55.876;9.830;2023-11-22T04:00:06;4.43;;;2.53;;
31442;SDS011;18065;55.876;9.830;2023-11-22T04:02:40;3.60;;;2.40;;
31442;SDS011;18065;55.876;9.830;2023-11-22T04:05:10;3.50;;;2.30;;
31442;SDS011;18065;55.876;9.830;2023-11-22T04:07:39;3.95;;;2.60;;
31442;SDS011;18065;55.876;9.830;2023-11-22T04:10:08;3.58;;;2.55;;
31442;SDS011;18065;55.876;9.830;2023-11-22T04:12:37;3.03;;;2.40;;
31442;SDS011;18065;55.876;9.830;2023-11-22T04:15:06;2.97;;;2.47;;
31442;SDS011;18065;55.876;9.830;2023-11-22T04:17:36;2.92;;;2.65;;
31442;SDS011;18065;55.876;9.830;2023-11-22T04:20:09;3.28;;;2.47;;
31442;SDS011;18065;55.876;9.830;2023-11-22T04:22:40;2.72;;;2.40;;
31442;SDS011;18065;55.876;9.830;2023-11-22T04:25:10;2.50;;;2.30;;
31442;SDS011;18065;55.876;9.830;2023-11-22T04:27:40;3.15;;;2.50;;
31442;SDS011;18065;55.876;9.830;2023-11-22T04:30:09;3.08;;;2.30;;
31442;SDS011;18065;55.876;9.830;2023-11-22T04:35:14;2.90;;;2.40;;
31442;SDS011;18065;55.876;9.830;2023-11-22T04:37:43;3.00;;;2.60;;
31442;SDS011;18065;55.876;9.830;2023-11-22T04:40:15;2.80;;;2.55;;
31442;SDS011;18065;55.876;9.830;2023-11-22T04:42:43;2.45;;;2.25;;
31442;SDS011;18065;55.876;9.830;2023-11-22T04:45:13;5.20;;;2.28;;
31442;SDS011;18065;55.876;9.830;2023-11-22T04:47:42;4.57;;;2.50;;
31442;SDS011;18065;55.876;9.830;2023-11-22T04:50:13;5.43;;;2.50;;
31442;SDS011;18065;55.876;9.830;2023-11-22T04:52:42;3.05;;;2.58;;
31442;SDS011;18065;55.876;9.830;2023-11-22T04:55:11;2.83;;;2.50;;
31442;SDS011;18065;55.876;9.830;2023-11-22T04:57:40;3.40;;;2.10;;
31442;SDS011;18065;55.876;9.830;2023-11-22T05:00:10;3.65;;;2.30;;
31442;SDS011;18065;55.876;9.830;2023-11-22T05:02:42;7.97;;;2.20;;
31442;SDS011;18065;55.876;9.830;2023-11-22T05:05:14;2.35;;;2.10;;
31442;SDS011;18065;55.876;9.830;2023-11-22T05:07:42;3.30;;;2.33;;
31442;SDS011;18065;55.876;9.830;2023-11-22T05:10:12;4.25;;;2.60;;
31442;SDS011;18065;55.876;9.830;2023-11-22T05:12:42;2.58;;;2.22;;
31442;SDS011;18065;55.876;9.830;2023-11-22T05:15:12;2.75;;;2.20;;
31442;SDS011;18065;55.876;9.830;2023-11-22T05:17:40;5.10;;;2.28;;
31442;SDS011;18065;55.876;9.830;2023-11-22T05:20:09;2.80;;;2.20;;
31442;SDS011;18065;55.876;9.830;2023-11-22T05:22:41;3.25;;;2.60;;
31442;SDS011;18065;55.876;9.830;2023-11-22T05:25:09;4.85;;;2.20;;
31442;SDS011;18065;55.876;9.830;2023-11-22T05:27:38;4.20;;;2.30;;
31442;SDS011;18065;55.876;9.830;2023-11-22T05:30:07;3.83;;;2.50;;
31442;SDS011;18065;55.876;9.830;2023-11-22T05:32:37;2.33;;;2.13;;
31442;SDS011;18065;55.876;9.830;2023-11-22T05:35:06;3.92;;;2.22;;
31442;SDS011;18065;55.876;9.830;2023-11-22T05:37:36;2.33;;;2.13;;
31442;SDS011;18065;55.876;9.830;2023-11-22T05:40:08;2.53;;;2.33;;
31442;SDS011;18065;55.876;9.830;2023-11-22T05:42:37;2.60;;;2.40;;
31442;SDS011;18065;55.876;9.830;2023-11-22T05:45:07;3.35;;;2.30;;
31442;SDS011;18065;55.876;9.830;2023-11-22T05:47:37;3.03;;;2.03;;
31442;SDS011;18065;55.876;9.830;2023-11-22T05:50:07;2.63;;;2.10;;
31442;SDS011;18065;55.876;9.830;2023-11-22T05:52:36;3.58;;;2.33;;
31442;SDS011;18065;55.876;9.830;2023-11-22T05:55:08;2.13;;;1.92;;
31442;SDS011;18065;55.876;9.830;2023-11-22T05:57:39;3.28;;;2.17;;
31442;SDS011;18065;55.876;9.830;2023-11-22T06:00:08;3.00;;;2.17;;
31442;SDS011;18065;55.876;9.830;2023-11-22T06:02:39;3.58;;;2.08;;
31442;SDS011;18065;55.876;9.830;2023-11-22T06:05:08;2.47;;;2.13;;
31442;SDS011;18065;55.876;9.830;2023-11-22T06:07:37;6.38;;;2.10;;
31442;SDS011;18065;55.876;9.830;2023-11-22T06:10:09;3.15;;;2.20;;
31442;SDS011;18065;55.876;9.830;2023-11-22T06:12:40;2.33;;;2.00;;
31442;SDS011;18065;55.876;9.830;2023-11-22T06:15:09;4.05;;;2.10;;
31442;SDS011;18065;55.876;9.830;2023-11-22T06:17:38;1.85;;;1.65;;
31442;SDS011;18065;55.876;9.830;2023-11-22T06:20:07;2.35;;;2.15;;
31442;SDS011;18065;55.876;9.830;2023-11-22T06:22:37;2.83;;;2.00;;
31442;SDS011;18065;55.876;9.830;2023-11-22T06:25:10;1.70;;;1.60;;
31442;SDS011;18065;55.876;9.830;2023-11-22T06:27:39;2.83;;;1.80;;
31442;SDS011;18065;55.876;9.830;2023-11-22T06:30:08;2.38;;;1.83;;
31442;SDS011;18065;55.876;9.830;2023-11-22T06:32:37;2.22;;;2.00;;
31442;SDS011;18065;55.876;9.830;2023-11-22T06:35:08;1.70;;;1.60;;
31442;SDS011;18065;55.876;9.830;2023-11-22T06:37:39;2.95;;;2.13;;
31442;SDS011;18065;55.876;9.830;2023-11-22T06:40:11;2.92;;;1.80;;
31442;SDS011;18065;55.876;9.830;2023-11-22T06:42:42;1.98;;;1.77;;
31442;SDS011;18065;55.876;9.830;2023-11-22T06:45:11;2.17;;;1.98;;
31442;SDS011;18065;55.876;9.830;2023-11-22T06:47:40;4.95;;;2.10;;
31442;SDS011;18065;55.876;9.830;2023-11-22T06:50:09;1.90;;;1.70;;
31442;SDS011;18065;55.876;9.830;2023-11-22T06:52:39;2.00;;;1.80;;
31442;SDS011;18065;55.876;9.830;2023-11-22T06:55:11;2.45;;;1.88;;
31442;SDS011;18065;55.876;9.830;2023-11-22T06:57:39;2.75;;;2.03;;
31442;SDS011;18065;55.876;9.830;2023-11-22T07:00:09;2.67;;;1.77;;
31442;SDS011;18065;55.876;9.830;2023-11-22T07:02:39;2.50;;;1.83;;
31442;SDS011;18065;55.876;9.830;2023-11-22T07:05:08;2.65;;;1.67;;
31442;SDS011;18065;55.876;9.830;2023-11-22T07:07:36;5.22;;;1.90;;
31442;SDS011;18065;55.876;9.830;2023-11-22T07:10:06;3.78;;;2.13;;
31442;SDS011;18065;55.876;9.830;2023-11-22T07:12:39;3.25;;;1.80;;
31442;SDS011;18065;55.876;9.830;2023-11-22T07:15:09;2.90;;;2.08;;
31442;SDS011;18065;55.876;9.830;2023-11-22T07:17:39;3.50;;;2.00;;
31442;SDS011;18065;55.876;9.830;2023-11-22T07:20:08;3.42;;;1.73;;
31442;SDS011;18065;55.876;9.830;2023-11-22T07:22:41;1.95;;;1.75;;
31442;SDS011;18065;55.876;9.830;2023-11-22T07:25:10;2.03;;;1.83;;
31442;SDS011;18065;55.876;9.830;2023-11-22T07:27:46;2.20;;;2.00;;
31442;SDS011;18065;55.876;9.830;2023-11-22T07:30:15;2.15;;;1.95;;
31442;SDS011;18065;55.876;9.830;2023-11-22T07:32:44;2.45;;;2.20;;
31442;SDS011;18065;55.876;9.830;2023-11-22T07:35:13;3.15;;;2.17;;
31442;SDS011;18065;55.876;9.830;2023-11-22T07:37:45;3.80;;;2.42;;
31442;SDS011;18065;55.876;9.830;2023-11-22T07:40:14;3.85;;;1.98;;
31442;SDS011;18065;55.876;9.830;2023-11-22T07:42:47;2.75;;;2.30;;
31442;SDS011;18065;55.876;9.830;2023-11-22T07:45:16;4.18;;;2.40;;
31442;SDS011;18065;55.876;9.830;2023-11-22T07:47:44;3.78;;;2.40;;
31442;SDS011;18065;55.876;9.830;2023-11-22T07:50:13;2.35;;;1.77;;
31442;SDS011;18065;55.876;9.830;2023-11-22T07:52:42;6.15;;;2.25;;
31442;SDS011;18065;55.876;9.830;2023-11-22T07:55:11;3.67;;;2.10;;
31442;SDS011;18065;55.876;9.830;2023-11-22T07:57:39;2.78;;;2.50;;
31442;SDS011;18065;55.876;9.830;2023-11-22T08:00:11;8.73;;;2.33;;
31442;SDS011;18065;55.876;9.830;2023-11-22T08:02:44;2.83;;;2.17;;
31442;SDS011;18065;55.876;9.830;2023-11-22T08:05:13;1.95;;;1.85;;
31442;SDS011;18065;55.876;9.830;2023-11-22T08:07:42;5.50;;;2.00;;
31442;SDS011;18065;55.876;9.830;2023-11-22T08:10:11;3.50;;;2.10;;
31442;SDS011;18065;55.876;9.830;2023-11-22T08:12:45;5.05;;;2.10;;
31442;SDS011;18065;55.876;9.830;2023-11-22T08:15:18;4.45;;;1.92;;
31442;SDS011;18065;55.876;9.830;2023-11-22T08:17:47;3.78;;;1.98;;
31442;SDS011;18065;55.876;9.830;2023-11-22T08:20:16;3.97;;;2.22;;
31442;SDS011;18065;55.876;9.830;2023-11-22T08:22:45;2.67;;;1.95;;
31442;SDS011;18065;55.876;9.830;2023-11-22T08:25:14;2.65;;;2.10;;
31442;SDS011;18065;55.876;9.830;2023-11-22T08:27:43;2.03;;;1.83;;
31442;SDS011;18065;55.876;9.830;2023-11-22T08:30:12;2.30;;;1.80;;
31442;SDS011;18065;55.876;9.830;2023-11-22T08:32:45;10.18;;;2.70;;
31442;SDS011;18065;55.876;9.830;2023-11-22T08:35:18;2.47;;;1.92;;
31442;SDS011;18065;55.876;9.830;2023-11-22T08:37:48;3.50;;;2.05;;
31442;SDS011;18065;55.876;9.830;2023-11-22T08:40:17;3.75;;;2.00;;
31442;SDS011;18065;55.876;9.830;2023-11-22T08:42:47;3.20;;;2.15;;
31442;SDS011;18065;55.876;9.830;2023-11-22T08:45:16;2.58;;;1.90;;
31442;SDS011;18065;55.876;9.830;2023-11-22T08:47:47;3.63;;;1.90;;
31442;SDS011;18065;55.876;9.830;2023-11-22T08:50:16;2.90;;;1.67;;
31442;SDS011;18065;55.876;9.830;2023-11-22T08:52:45;2.85;;;1.83;;
31442;SDS011;18065;55.876;9.830;2023-11-22T08:55:14;3.42;;;1.90;;
31442;SDS011;18065;55.876;9.830;2023-11-22T08:57:42;2.67;;;2.13;;
31442;SDS011;18065;55.876;9.830;2023-11-22T09:00:12;3.60;;;1.85;;
31442;SDS011;18065;55.876;9.830;2023-11-22T09:02:49;4.00;;;1.95;;
31442;SDS011;18065;55.876;9.830;2023-11-22T09:05:18;4.03;;;1.80;;
31442;SDS011;18065;55.876;9.830;2023-11-22T09:07:47;2.45;;;1.88;;
31442;SDS011;18065;55.876;9.830;2023-11-22T09:10:16;2.05;;;1.50;;
31442;SDS011;18065;55.876;9.830;2023-11-22T09:12:47;3.08;;;2.03;;
31442;SDS011;18065;55.876;9.830;2023-11-22T09:15:16;6.85;;;2.25;;
31442;SDS011;18065;55.876;9.830;2023-11-22T09:17:54;3.47;;;2.03;;
31442;SDS011;18065;55.876;9.830;2023-11-22T09:20:23;2.88;;;1.70;;
31442;SDS011;18065;55.876;9.830;2023-11-22T09:22:52;4.28;;;1.90;;
31442;SDS011;18065;55.876;9.830;2023-11-22T09:25:22;3.28;;;1.70;;
31442;SDS011;18065;55.876;9.830;2023-11-22T09:27:53;2.58;;;1.75;;
31442;SDS011;18065;55.876;9.830;2023-11-22T09:30:24;2.20;;;1.45;;
31442;SDS011;18065;55.876;9.830;2023-11-22T09:33:07;3.33;;;1.50;;
31442;SDS011;18065;55.876;9.830;2023-11-22T09:35:38;1.90;;;1.50;;
31442;SDS011;18065;55.876;9.830;2023-11-22T09:38:08;1.50;;;1.40;;
31442;SDS011;18065;55.876;9.830;2023-11-22T09:40:38;1.75;;;1.50;;
31442;SDS011;18065;55.876;9.830;2023-11-22T09:43:09;2.15;;;1.50;;
31442;SDS011;18065;55.876;9.830;2023-11-22T09:45:35;1.98;;;1.70;;
31442;SDS011;18065;55.876;9.830;2023-11-22T09:48:12;2.03;;;1.60;;
31442;SDS011;18065;55.876;9.830;2023-11-22T09:50:46;2.75;;;1.65;;
31442;SDS011;18065;55.876;9.830;2023-11-22T09:53:22;1.67;;;1.42;;
31442;SDS011;18065;55.876;9.830;2023-11-22T09:55:59;1.65;;;1.50;;
31442;SDS011;18065;55.876;9.830;2023-11-22T09:58:32;2.45;;;1.48;;
31442;SDS011;18065;55.876;9.830;2023-11-22T10:01:02;1.40;;;1.30;;
31442;SDS011;18065;55.876;9.830;2023-11-22T10:03:35;1.80;;;1.50;;
31442;SDS011;18065;55.876;9.830;2023-11-22T10:06:05;2.00;;;1.50;;
31442;SDS011;18065;55.876;9.830;2023-11-22T10:08:35;2.78;;;1.63;;
31442;SDS011;18065;55.876;9.830;2023-11-22T10:11:04;1.40;;;1.30;;
31442;SDS011;18065;55.876;9.830;2023-11-22T10:13:32;2.47;;;1.80;;
31442;SDS011;18065;55.876;9.830;2023-11-22T10:16:08;5.32;;;1.77;;
31442;SDS011;18065;55.876;9.830;2023-11-22T10:18:42;3.10;;;1.27;;
31442;SDS011;18065;55.876;9.830;2023-11-22T10:21:21;1.98;;;1.23;;
31442;SDS011;18065;55.876;9.830;2023-11-22T10:23:52;2.63;;;1.63;;
31442;SDS011;18065;55.876;9.830;2023-11-22T10:26:21;5.03;;;1.50;;
31442;SDS011;18065;55.876;9.830;2023-11-22T10:28:52;3.00;;;1.30;;
31442;SDS011;18065;55.876;9.830;2023-11-22T10:31:22;3.38;;;1.10;;
31442;SDS011;18065;55.876;9.830;2023-11-22T10:33:54;3.60;;;1.20;;
31442;SDS011;18065;55.876;9.830;2023-11-22T10:36:23;2.13;;;1.15;;
31442;SDS011;18065;55.876;9.830;2023-11-22T10:38:53;1.70;;;1.15;;
31442;SDS011;18065;55.876;9.830;2023-11-22T10:41:23;3.42;;;1.58;;
31442;SDS011;18065;55.876;9.830;2023-11-22T10:43:52;2.35;;;1.23;;
31442;SDS011;18065;55.876;9.830;2023-11-22T10:46:23;1.77;;;1.42;;
31442;SDS011;18065;55.876;9.830;2023-11-22T10:48:58;1.77;;;1.40;;
31442;SDS011;18065;55.876;9.830;2023-11-22T10:51:29;1.42;;;1.23;;
31442;SDS011;18065;55.876;9.830;2023-11-22T10:54:02;1.65;;;1.30;;
31442;SDS011;18065;55.876;9.830;2023-11-22T10:56:34;2.35;;;1.40;;
31442;SDS011;18065;55.876;9.830;2023-11-22T10:59:09;1.98;;;1.20;;
31442;SDS011;18065;55.876;9.830;2023-11-22T11:01:42;2.03;;;1.20;;
31442;SDS011;18065;55.876;9.830;2023-11-22T11:04:18;1.90;;;1.20;;
31442;SDS011;18065;55.876;9.830;2023-11-22T11:06:50;2.28;;;1.40;;
31442;SDS011;18065;55.876;9.830;2023-11-22T11:09:22;3.20;;;1.40;;
31442;SDS011;18065;55.876;9.830;2023-11-22T11:11:57;2.35;;;1.33;;
31442;SDS011;18065;55.876;9.830;2023-11-22T11:14:28;1.35;;;1.25;;
31442;SDS011;18065;55.876;9.830;2023-11-22T11:16:57;2.50;;;1.33;;
31442;SDS011;18065;55.876;9.830;2023-11-22T11:19:28;4.57;;;1.40;;
31442;SDS011;18065;55.876;9.830;2023-11-22T11:21:59;1.50;;;1.20;;
31442;SDS011;18065;55.876;9.830;2023-11-22T11:24:29;4.72;;;1.30;;
31442;SDS011;18065;55.876;9.830;2023-11-22T11:27:06;2.50;;;1.27;;
31442;SDS011;18065;55.876;9.830;2023-11-22T11:29:35;1.30;;;0.95;;
31442;SDS011;18065;55.876;9.830;2023-11-22T11:32:09;2.53;;;1.25;;
31442;SDS011;18065;55.876;9.830;2023-11-22T11:34:49;2.30;;;1.20;;
31442;SDS011;18065;55.876;9.830;2023-11-22T11:37:18;1.30;;;1.13;;
31442;SDS011;18065;55.876;9.830;2023-11-22T11:39:47;1.75;;;1.00;;
31442;SDS011;18065;55.876;9.830;2023-11-22T11:42:16;1.23;;;0.93;;
31442;SDS011;18065;55.876;9.830;2023-11-22T11:44:51;1.98;;;1.15;;
31442;SDS011;18065;55.876;9.830;2023-11-22T11:47:31;5.05;;;1.30;;
31442;SDS011;18065;55.876;9.830;2023-11-22T11:50:03;1.35;;;1.20;;
31442;SDS011;18065;55.876;9.830;2023-11-22T11:52:32;4.43;;;1.30;;
31442;SDS011;18065;55.876;9.830;2023-11-22T11:55:01;2.30;;;1.00;;
31442;SDS011;18065;55.876;9.830;2023-11-22T11:57:30;1.92;;;1.35;;
31442;SDS011;18065;55.876;9.830;2023-11-22T12:00:01;1.20;;;1.10;;
31442;SDS011;18065;55.876;9.830;2023-11-22T12:02:30;1.20;;;1.00;;
31442;SDS011;18065;55.876;9.830;2023-11-22T12:04:59;1.15;;;1.00;;
31442;SDS011;18065;55.876;9.830;2023-11-22T12:07:36;1.48;;;1.15;;
31442;SDS011;18065;55.876;9.830;2023-11-22T12:10:05;2.30;;;1.15;;
31442;SDS011;18065;55.876;9.830;2023-11-22T12:12:35;4.28;;;1.27;;
31442;SDS011;18065;55.876;9.830;2023-11-22T12:15:04;3.17;;;1.00;;
31442;SDS011;18065;55.876;9.830;2023-11-22T12:17:34;1.83;;;1.08;;
31442;SDS011;18065;55.876;9.830;2023-11-22T12:20:10;3.75;;;1.00;;
31442;SDS011;18065;55.876;9.830;2023-11-22T12:22:43;2.35;;;1.08;;
31442;SDS011;18065;55.876;9.830;2023-11-22T12:25:13;2.50;;;1.10;;
31442;SDS011;18065;55.876;9.830;2023-11-22T12:27:42;2.95;;;1.10;;
31442;SDS011;18065;55.876;9.830;2023-11-22T12:30:27;2.47;;;1.20;;
31442;SDS011;18065;55.876;9.830;2023-11-22T12:32:57;1.27;;;0.98;;
31442;SDS011;18065;55.876;9.830;2023-11-22T12:35:29;1.02;;;0.88;;
31442;SDS011;18065;55.876;9.830;2023-11-22T12:38:02;1.17;;;0.75;;
31442;SDS011;18065;55.876;9.830;2023-11-22T12:40:34;1.27;;;1.15;;
31442;SDS011;18065;55.876;9.830;2023-11-22T12:43:03;1.50;;;1.10;;
31442;SDS011;18065;55.876;9.830;2023-11-22T12:45:33;2.85;;;1.00;;
31442;SDS011;18065;55.876;9.830;2023-11-22T12:48:19;1.20;;;1.00;;
31442;SDS011;18065;55.876;9.830;2023-11-22T12:50:49;1.83;;;0.90;;
31442;SDS011;18065;55.876;9.830;2023-11-22T12:53:24;1.08;;;0.98;;
31442;SDS011;18065;55.876;9.830;2023-11-22T12:55:54;1.17;;;0.95;;
31442;SDS011;18065;55.876;9.830;2023-11-22T12:58:24;1.80;;;1.20;;
31442;SDS011;18065;55.876;9.830;2023-11-22T13:00:53;2.97;;;1.10;;
31442;SDS011;18065;55.876;9.830;2023-11-22T13:03:26;1.35;;;0.80;;
31442;SDS011;18065;55.876;9.830;2023-11-22T13:05:57;1.40;;;1.00;;
31442;SDS011;18065;55.876;9.830;2023-11-22T13:08:28;3.00;;;1.30;;
31442;SDS011;18065;55.876;9.830;2023-11-22T13:10:58;1.00;;;0.90;;
31442;SDS011;18065;55.876;9.830;2023-11-22T13:13:27;1.00;;;0.90;;
31442;SDS011;18065;55.876;9.830;2023-11-22T13:15:56;1.25;;;0.80;;
31442;SDS011;18065;55.876;9.830;2023-11-22T13:18:25;1.45;;;1.02;;
31442;SDS011;18065;55.876;9.830;2023-11-22T13:20:54;1.33;;;1.13;;
31442;SDS011;18065;55.876;9.830;2023-11-22T13:23:23;1.80;;;1.17;;
31442;SDS011;18065;55.876;9.830;2023-11-22T13:25:54;1.48;;;1.00;;
31442;SDS011;18065;55.876;9.830;2023-11-22T13:28:23;1.48;;;1.00;;
31442;SDS011;18065;55.876;9.830;2023-11-22T13:30:51;1.10;;;0.82;;
31442;SDS011;18065;55.876;9.830;2023-11-22T13:33:20;1.95;;;1.10;;
31442;SDS011;18065;55.876;9.830;2023-11-22T13:35:49;1.38;;;1.02;;
31442;SDS011;18065;55.876;9.830;2023-11-22T13:38:18;2.08;;;1.20;;
31442;SDS011;18065;55.876;9.830;2023-11-22T13:40:46;1.08;;;0.90;;
31442;SDS011;18065;55.876;9.830;2023-11-22T13:43:17;1.50;;;0.95;;
31442;SDS011;18065;55.876;9.830;2023-11-22T13:45:46;1.55;;;1.20;;
31442;SDS011;18065;55.876;9.830;2023-11-22T13:48:15;3.20;;;1.30;;
31442;SDS011;18065;55.876;9.830;2023-11-22T13:50:44;1.70;;;1.00;;
31442;SDS011;18065;55.876;9.830;2023-11-22T13:53:13;3.55;;;1.10;;
31442;SDS011;18065;55.876;9.830;2023-11-22T13:55:45;1.15;;;1.00;;
31442;SDS011;18065;55.876;9.830;2023-11-22T13:58:17;3.70;;;1.23;;
31442;SDS011;18065;55.876;9.830;2023-11-22T14:00:46;1.90;;;1.00;;
31442;SDS011;18065;55.876;9.830;2023-11-22T14:03:17;2.03;;;1.08;;
31442;SDS011;18065;55.876;9.830;2023-11-22T14:05:47;2.10;;;1.23;;
31442;SDS011;18065;55.876;9.830;2023-11-22T14:08:16;2.97;;;1.20;;
31442;SDS011;18065;55.876;9.830;2023-11-22T14:10:45;4.00;;;1.15;;
31442;SDS011;18065;55.876;9.830;2023-11-22T14:13:13;1.48;;;1.15;;
31442;SDS011;18065;55.876;9.830;2023-11-22T14:15:45;2.00;;;1.08;;
31442;SDS011;18065;55.876;9.830;2023-11-22T14:18:13;3.38;;;1.30;;
31442;SDS011;18065;55.876;9.830;2023-11-22T14:20:42;3.50;;;1.23;;
31442;SDS011;18065;55.876;9.830;2023-11-22T14:23:11;5.53;;;1.25;;
31442;SDS011;18065;55.876;9.830;2023-11-22T14:25:40;9.23;;;1.70;;
31442;SDS011;18065;55.876;9.830;2023-11-22T14:28:08;4.90;;;1.00;;
31442;SDS011;18065;55.876;9.830;2023-11-22T14:30:37;4.88;;;1.20;;
31442;SDS011;18065;55.876;9.830;2023-11-22T14:33:09;3.13;;;1.45;;
31442;SDS011;18065;55.876;9.830;2023-11-22T14:35:38;3.00;;;1.00;;
31442;SDS011;18065;55.876;9.830;2023-11-22T14:38:09;7.38;;;1.20;;
31442;SDS011;18065;55.876;9.830;2023-11-22T14:40:38;3.47;;;1.23;;
31442;SDS011;18065;55.876;9.830;2023-11-22T14:43:07;3.97;;;1.20;;
31442;SDS011;18065;55.876;9.830;2023-11-22T14:45:36;5.15;;;1.35;;
31442;SDS011;18065;55.876;9.830;2023-11-22T14:48:09;14.02;;;1.90;;
31442;SDS011;18065;55.876;9.830;2023-11-22T14:50:38;13.15;;;1.50;;
31442;SDS011;18065;55.876;9.830;2023-11-22T14:53:07;23.48;;;2.25;;
31442;SDS011;18065;55.876;9.830;2023-11-22T14:55:36;45.08;;;4.40;;
31442;SDS011;18065;55.876;9.830;2023-11-22T14:58:06;22.65;;;3.08;;
31442;SDS011;18065;55.876;9.830;2023-11-22T15:00:35;10.70;;;2.20;;
31442;SDS011;18065;55.876;9.830;2023-11-22T15:03:04;10.15;;;2.20;;
31442;SDS011;18065;55.876;9.830;2023-11-22T15:05:35;11.80;;;2.08;;
31442;SDS011;18065;55.876;9.830;2023-11-22T15:08:04;10.95;;;2.00;;